sensor_id;sensor_type;location;lat;lon;timestamp;P1;durP1;ratioP1;P2;durP2;ratioP2
60032;SDS011;45905;50.570;10.428;2023-07-29T00:00:48;1.57;;;1.13;;
60032;SDS011;45905;50.570;10.428;2023-07-29T00:03:15;2.07;;;1.40;;
60032;SDS011;45905;50.570;10.428;2023-07-29T00:05:43;2.17;;;1.50;;
60032;SDS011;45905;50.570;10.428;2023-07-29T00:08:10;4.67;;;1.50;;
60032;SDS011;45905;50.570;10.428;2023-07-29T00:10:37;1.50;;;1.40;;
60032;SDS011;45905;50.570;10.428;2023-07-29T00:13:05;7.27;;;4.57;;
60032;SDS011;45905;50.570;10.428;2023-07-29T00:15:34;3.77;;;2.43;;
60032;SDS011;45905;50.570;10.428;2023-07-29T00:18:01;1.43;;;1.33;;
60032;SDS011;45905;50.570;10.428;2023-07-29T00:20:28;4.33;;;1.87;;
60032;SDS011;45905;50.570;10.428;2023-07-29T00:22:56;2.10;;;1.20;;
60032;SDS011;45905;50.570;10.428;2023-07-29T00:25:24;1.70;;;1.50;;
60032;SDS011;45905;50.570;10.428;2023-07-29T00:27:52;1.77;;;1.50;;
60032;SDS011;45905;50.570;10.428;2023-07-29T00:30:24;1.77;;;1.57;;
60032;SDS011;45905;50.570;10.428;2023-07-29T00:32:51;2.80;;;2.03;;
60032;SDS011;45905;50.570;10.428;2023-07-29T00:35:19;3.30;;;2.40;;
60032;SDS011;45905;50.570;10.428;2023-07-29T00:37:46;2.03;;;1.60;;
60032;SDS011;45905;50.570;10.428;2023-07-29T00:40:20;5.23;;;2.03;;
60032;SDS011;45905;50.570;10.428;2023-07-29T00:42:49;1.70;;;1.30;;
60032;SDS011;45905;50.570;10.428;2023-07-29T00:45:18;2.80;;;1.80;;
60032;SDS011;45905;50.570;10.428;2023-07-29T00:47:45;2.77;;;1.73;;
60032;SDS011;45905;50.570;10.428;2023-07-29T00:50:15;2.27;;;1.60;;
60032;SDS011;45905;50.570;10.428;2023-07-29T00:52:43;3.67;;;2.07;;
60032;SDS011;45905;50.570;10.428;2023-07-29T00:55:11;3.63;;;1.80;;
60032;SDS011;45905;50.570;10.428;2023-07-29T00:57:38;3.23;;;1.87;;
60032;SDS011;45905;50.570;10.428;2023-07-29T01:00:06;2.90;;;2.13;;
60032;SDS011;45905;50.570;10.428;2023-07-29T01:02:35;2.50;;;1.87;;
60032;SDS011;45905;50.570;10.428;2023-07-29T01:05:03;3.07;;;2.10;;
60032;SDS011;45905;50.570;10.428;2023-07-29T01:07:55;1.77;;;1.67;;
60032;SDS011;45905;50.570;10.428;2023-07-29T01:10:46;2.73;;;2.00;;
60032;SDS011;45905;50.570;10.428;2023-07-29T01:16:17;3.07;;;1.97;;
60032;SDS011;45905;50.570;10.428;2023-07-29T01:19:06;2.50;;;2.00;;
60032;SDS011;45905;50.570;10.428;2023-07-29T01:21:41;2.30;;;2.07;;
60032;SDS011;45905;50.570;10.428;2023-07-29T01:24:09;4.80;;;1.80;;
60032;SDS011;45905;50.570;10.428;2023-07-29T01:26:37;2.80;;;1.97;;
60032;SDS011;45905;50.570;10.428;2023-07-29T01:29:05;2.73;;;1.93;;
60032;SDS011;45905;50.570;10.428;2023-07-29T01:31:37;2.43;;;2.03;;
60032;SDS011;45905;50.570;10.428;2023-07-29T01:34:17;2.23;;;1.80;;
60032;SDS011;45905;50.570;10.428;2023-07-29T01:36:58;2.10;;;1.77;;
60032;SDS011;45905;50.570;10.428;2023-07-29T01:39:31;2.90;;;1.97;;
60032;SDS011;45905;50.570;10.428;2023-07-29T01:42:03;1.80;;;1.67;;
60032;SDS011;45905;50.570;10.428;2023-07-29T01:44:31;3.17;;;2.27;;
60032;SDS011;45905;50.570;10.428;2023-07-29T01:47:00;5.07;;;2.07;;
60032;SDS011;45905;50.570;10.428;2023-07-29T01:49:27;3.73;;;2.50;;
60032;SDS011;45905;50.570;10.428;2023-07-29T01:51:54;2.83;;;2.20;;
60032;SDS011;45905;50.570;10.428;2023-07-29T01:54:21;3.00;;;2.00;;
60032;SDS011;45905;50.570;10.428;2023-07-29T01:56:49;1.83;;;1.47;;
60032;SDS011;45905;50.570;10.428;2023-07-29T01:59:17;2.43;;;2.00;;
60032;SDS011;45905;50.570;10.428;2023-07-29T02:01:44;1.93;;;1.73;;
60032;SDS011;45905;50.570;10.428;2023-07-29T02:04:13;2.60;;;1.90;;
60032;SDS011;45905;50.570;10.428;2023-07-29T02:06:40;3.23;;;2.47;;
60032;SDS011;45905;50.570;10.428;2023-07-29T02:09:07;2.37;;;1.80;;
60032;SDS011;45905;50.570;10.428;2023-07-29T02:11:36;5.30;;;2.43;;
60032;SDS011;45905;50.570;10.428;2023-07-29T02:14:03;12.90;;;2.43;;
60032;SDS011;45905;50.570;10.428;2023-07-29T02:16:30;1.90;;;1.50;;
60032;SDS011;45905;50.570;10.428;2023-07-29T02:18:59;2.33;;;1.70;;
60032;SDS011;45905;50.570;10.428;2023-07-29T02:21:26;1.97;;;1.70;;
60032;SDS011;45905;50.570;10.428;2023-07-29T02:23:54;2.27;;;2.03;;
60032;SDS011;45905;50.570;10.428;2023-07-29T02:26:21;2.00;;;1.20;;
60032;SDS011;45905;50.570;10.428;2023-07-29T02:28:49;3.33;;;2.20;;
60032;SDS011;45905;50.570;10.428;2023-07-29T02:31:20;1.60;;;1.50;;
60032;SDS011;45905;50.570;10.428;2023-07-29T02:33:50;4.60;;;2.40;;
60032;SDS011;45905;50.570;10.428;2023-07-29T02:36:18;2.17;;;1.63;;
60032;SDS011;45905;50.570;10.428;2023-07-29T02:38:46;2.33;;;1.73;;
60032;SDS011;45905;50.570;10.428;2023-07-29T02:41:13;1.57;;;1.33;;
60032;SDS011;45905;50.570;10.428;2023-07-29T02:43:43;1.87;;;1.30;;
60032;SDS011;45905;50.570;10.428;2023-07-29T02:46:15;2.40;;;2.20;;
60032;SDS011;45905;50.570;10.428;2023-07-29T02:48:43;2.27;;;2.07;;
60032;SDS011;45905;50.570;10.428;2023-07-29T02:51:11;2.03;;;1.77;;
60032;SDS011;45905;50.570;10.428;2023-07-29T02:53:38;2.23;;;2.00;;
60032;SDS011;45905;50.570;10.428;2023-07-29T02:56:06;2.20;;;1.80;;
60032;SDS011;45905;50.570;10.428;2023-07-29T02:58:36;2.10;;;1.70;;
60032;SDS011;45905;50.570;10.428;2023-07-29T03:01:04;1.83;;;1.70;;
60032;SDS011;45905;50.570;10.428;2023-07-29T03:03:33;3.63;;;1.50;;
60032;SDS011;45905;50.570;10.428;2023-07-29T03:06:05;2.27;;;1.50;;
60032;SDS011;45905;50.570;10.428;2023-07-29T03:08:39;4.93;;;2.37;;
60032;SDS011;45905;50.570;10.428;2023-07-29T03:11:07;1.47;;;1.30;;
60032;SDS011;45905;50.570;10.428;2023-07-29T03:13:37;2.60;;;2.00;;
60032;SDS011;45905;50.570;10.428;2023-07-29T03:16:08;3.30;;;1.97;;
60032;SDS011;45905;50.570;10.428;2023-07-29T03:18:48;1.53;;;1.33;;
60032;SDS011;45905;50.570;10.428;2023-07-29T03:21:16;2.80;;;1.77;;
60032;SDS011;45905;50.570;10.428;2023-07-29T03:23:43;2.07;;;1.60;;
60032;SDS011;45905;50.570;10.428;2023-07-29T03:26:10;2.03;;;1.83;;
60032;SDS011;45905;50.570;10.428;2023-07-29T03:28:39;3.83;;;1.60;;
60032;SDS011;45905;50.570;10.428;2023-07-29T03:31:08;3.50;;;2.20;;
60032;SDS011;45905;50.570;10.428;2023-07-29T03:33:36;2.67;;;2.03;;
60032;SDS011;45905;50.570;10.428;2023-07-29T03:36:04;3.47;;;2.40;;
60032;SDS011;45905;50.570;10.428;2023-07-29T03:38:31;3.30;;;1.80;;
60032;SDS011;45905;50.570;10.428;2023-07-29T03:41:02;2.13;;;1.40;;
60032;SDS011;45905;50.570;10.428;2023-07-29T03:43:29;5.83;;;1.80;;
60032;SDS011;45905;50.570;10.428;2023-07-29T03:45:59;2.83;;;1.80;;
60032;SDS011;45905;50.570;10.428;2023-07-29T03:48:27;1.80;;;1.70;;
60032;SDS011;45905;50.570;10.428;2023-07-29T03:50:54;2.53;;;1.90;;
60032;SDS011;45905;50.570;10.428;2023-07-29T03:53:21;2.60;;;2.23;;
60032;SDS011;45905;50.570;10.428;2023-07-29T03:55:49;4.10;;;2.37;;
60032;SDS011;45905;50.570;10.428;2023-07-29T03:58:16;1.97;;;1.77;;
60032;SDS011;45905;50.570;10.428;2023-07-29T04:00:44;2.40;;;2.03;;
60032;SDS011;45905;50.570;10.428;2023-07-29T04:03:11;2.13;;;1.50;;
60032;SDS011;45905;50.570;10.428;2023-07-29T04:05:38;4.40;;;2.60;;
60032;SDS011;45905;50.570;10.428;2023-07-29T04:08:05;2.90;;;1.83;;
60032;SDS011;45905;50.570;10.428;2023-07-29T04:10:33;3.03;;;1.70;;
60032;SDS011;45905;50.570;10.428;2023-07-29T04:13:01;2.50;;;1.73;;
60032;SDS011;45905;50.570;10.428;2023-07-29T04:15:29;2.13;;;1.93;;
60032;SDS011;45905;50.570;10.428;2023-07-29T04:17:56;2.30;;;2.10;;
60032;SDS011;45905;50.570;10.428;2023-07-29T04:20:24;3.00;;;1.73;;
60032;SDS011;45905;50.570;10.428;2023-07-29T04:22:51;2.83;;;2.20;;
60032;SDS011;45905;50.570;10.428;2023-07-29T04:25:18;3.30;;;1.90;;
60032;SDS011;45905;50.570;10.428;2023-07-29T04:27:45;6.80;;;2.10;;
60032;SDS011;45905;50.570;10.428;2023-07-29T04:30:13;3.47;;;2.93;;
60032;SDS011;45905;50.570;10.428;2023-07-29T04:32:40;2.50;;;2.00;;
60032;SDS011;45905;50.570;10.428;2023-07-29T04:35:08;3.10;;;2.43;;
60032;SDS011;45905;50.570;10.428;2023-07-29T04:37:36;1.90;;;1.80;;
60032;SDS011;45905;50.570;10.428;2023-07-29T04:40:03;2.10;;;1.90;;
60032;SDS011;45905;50.570;10.428;2023-07-29T04:42:31;1.70;;;1.60;;
60032;SDS011;45905;50.570;10.428;2023-07-29T04:44:58;2.63;;;1.60;;
60032;SDS011;45905;50.570;10.428;2023-07-29T04:47:25;2.30;;;1.70;;
60032;SDS011;45905;50.570;10.428;2023-07-29T04:49:53;2.20;;;1.97;;
60032;SDS011;45905;50.570;10.428;2023-07-29T04:52:20;3.37;;;2.27;;
60032;SDS011;45905;50.570;10.428;2023-07-29T04:54:48;4.13;;;2.50;;
60032;SDS011;45905;50.570;10.428;2023-07-29T04:57:15;3.83;;;2.70;;
60032;SDS011;45905;50.570;10.428;2023-07-29T04:59:43;2.17;;;1.97;;
60032;SDS011;45905;50.570;10.428;2023-07-29T05:02:10;2.83;;;2.53;;
60032;SDS011;45905;50.570;10.428;2023-07-29T05:04:37;4.03;;;2.40;;
60032;SDS011;45905;50.570;10.428;2023-07-29T05:07:05;2.40;;;2.13;;
60032;SDS011;45905;50.570;10.428;2023-07-29T05:09:32;2.57;;;2.17;;
60032;SDS011;45905;50.570;10.428;2023-07-29T05:12:00;4.47;;;2.63;;
60032;SDS011;45905;50.570;10.428;2023-07-29T05:14:27;2.23;;;1.93;;
60032;SDS011;45905;50.570;10.428;2023-07-29T05:16:54;3.33;;;2.40;;
60032;SDS011;45905;50.570;10.428;2023-07-29T05:19:21;2.73;;;1.67;;
60032;SDS011;45905;50.570;10.428;2023-07-29T05:21:49;2.37;;;1.73;;
60032;SDS011;45905;50.570;10.428;2023-07-29T05:24:16;3.37;;;2.80;;
60032;SDS011;45905;50.570;10.428;2023-07-29T05:26:43;5.70;;;2.30;;
60032;SDS011;45905;50.570;10.428;2023-07-29T05:29:10;2.77;;;2.07;;
60032;SDS011;45905;50.570;10.428;2023-07-29T05:31:38;4.83;;;2.43;;
60032;SDS011;45905;50.570;10.428;2023-07-29T05:34:06;3.60;;;2.33;;
60032;SDS011;45905;50.570;10.428;2023-07-29T05:36:33;2.33;;;2.13;;
60032;SDS011;45905;50.570;10.428;2023-07-29T05:39:01;2.10;;;1.93;;
60032;SDS011;45905;50.570;10.428;2023-07-29T05:41:28;2.20;;;1.80;;
60032;SDS011;45905;50.570;10.428;2023-07-29T05:43:56;2.30;;;2.00;;
60032;SDS011;45905;50.570;10.428;2023-07-29T05:46:23;2.23;;;1.90;;
60032;SDS011;45905;50.570;10.428;2023-07-29T05:48:51;3.13;;;2.30;;
60032;SDS011;45905;50.570;10.428;2023-07-29T05:51:18;3.07;;;1.90;;
60032;SDS011;45905;50.570;10.428;2023-07-29T05:53:45;3.97;;;2.10;;
60032;SDS011;45905;50.570;10.428;2023-07-29T05:56:12;5.77;;;3.00;;
60032;SDS011;45905;50.570;10.428;2023-07-29T05:58:40;2.90;;;2.37;;
60032;SDS011;45905;50.570;10.428;2023-07-29T06:01:07;2.67;;;2.30;;
60032;SDS011;45905;50.570;10.428;2023-07-29T06:03:34;4.10;;;2.43;;
60032;SDS011;45905;50.570;10.428;2023-07-29T06:06:02;3.60;;;2.30;;
60032;SDS011;45905;50.570;10.428;2023-07-29T06:08:29;1.57;;;1.43;;
60032;SDS011;45905;50.570;10.428;2023-07-29T06:11:00;2.37;;;2.17;;
60032;SDS011;45905;50.570;10.428;2023-07-29T06:13:28;2.40;;;2.10;;
60032;SDS011;45905;50.570;10.428;2023-07-29T06:15:55;2.53;;;1.60;;
60032;SDS011;45905;50.570;10.428;2023-07-29T06:18:23;4.47;;;2.07;;
60032;SDS011;45905;50.570;10.428;2023-07-29T06:20:51;5.43;;;2.73;;
60032;SDS011;45905;50.570;10.428;2023-07-29T06:23:18;2.73;;;1.97;;
60032;SDS011;45905;50.570;10.428;2023-07-29T06:25:46;6.87;;;2.30;;
60032;SDS011;45905;50.570;10.428;2023-07-29T06:28:13;2.57;;;1.80;;
60032;SDS011;45905;50.570;10.428;2023-07-29T06:30:40;2.70;;;2.00;;
60032;SDS011;45905;50.570;10.428;2023-07-29T06:33:07;5.43;;;2.50;;
60032;SDS011;45905;50.570;10.428;2023-07-29T06:35:35;2.30;;;1.67;;
60032;SDS011;45905;50.570;10.428;2023-07-29T06:38:02;2.93;;;2.10;;
60032;SDS011;45905;50.570;10.428;2023-07-29T06:40:30;3.40;;;1.63;;
60032;SDS011;45905;50.570;10.428;2023-07-29T06:42:57;2.23;;;1.97;;
60032;SDS011;45905;50.570;10.428;2023-07-29T06:45:24;1.77;;;1.53;;
60032;SDS011;45905;50.570;10.428;2023-07-29T06:47:51;3.63;;;1.57;;
60032;SDS011;45905;50.570;10.428;2023-07-29T06:50:19;5.37;;;1.40;;
60032;SDS011;45905;50.570;10.428;2023-07-29T06:52:46;4.67;;;1.83;;
60032;SDS011;45905;50.570;10.428;2023-07-29T06:55:13;2.50;;;1.80;;
60032;SDS011;45905;50.570;10.428;2023-07-29T06:57:40;2.63;;;1.97;;
60032;SDS011;45905;50.570;10.428;2023-07-29T07:00:08;2.70;;;1.73;;
60032;SDS011;45905;50.570;10.428;2023-07-29T07:02:35;11.00;;;1.83;;
60032;SDS011;45905;50.570;10.428;2023-07-29T07:05:03;2.23;;;1.53;;
60032;SDS011;45905;50.570;10.428;2023-07-29T07:07:30;2.33;;;1.90;;
60032;SDS011;45905;50.570;10.428;2023-07-29T07:09:57;3.43;;;1.50;;
60032;SDS011;45905;50.570;10.428;2023-07-29T07:12:27;2.07;;;1.83;;
60032;SDS011;45905;50.570;10.428;2023-07-29T07:14:54;1.60;;;1.20;;
60032;SDS011;45905;50.570;10.428;2023-07-29T07:17:21;2.00;;;1.80;;
60032;SDS011;45905;50.570;10.428;2023-07-29T07:40:33;2.40;;;1.50;;
60032;SDS011;45905;50.570;10.428;2023-07-29T07:43:00;4.13;;;1.80;;
60032;SDS011;45905;50.570;10.428;2023-07-29T07:45:28;2.20;;;1.90;;
60032;SDS011;45905;50.570;10.428;2023-07-29T07:47:55;2.63;;;1.50;;
60032;SDS011;45905;50.570;10.428;2023-07-29T07:50:23;2.13;;;1.43;;
60032;SDS011;45905;50.570;10.428;2023-07-29T07:52:50;2.50;;;1.67;;
60032;SDS011;45905;50.570;10.428;2023-07-29T07:55:18;1.73;;;1.47;;
60032;SDS011;45905;50.570;10.428;2023-07-29T07:57:45;4.90;;;1.60;;
60032;SDS011;45905;50.570;10.428;2023-07-29T08:00:13;2.17;;;1.40;;
60032;SDS011;45905;50.570;10.428;2023-07-29T08:02:43;2.07;;;1.30;;
60032;SDS011;45905;50.570;10.428;2023-07-29T08:05:10;1.60;;;1.40;;
60032;SDS011;45905;50.570;10.428;2023-07-29T08:07:38;1.60;;;1.43;;
60032;SDS011;45905;50.570;10.428;2023-07-29T08:10:05;5.40;;;2.20;;
60032;SDS011;45905;50.570;10.428;2023-07-29T08:12:33;1.77;;;1.43;;
60032;SDS011;45905;50.570;10.428;2023-07-29T08:15:01;3.00;;;1.80;;
60032;SDS011;45905;50.570;10.428;2023-07-29T08:17:29;1.93;;;1.50;;
60032;SDS011;45905;50.570;10.428;2023-07-29T08:19:57;3.40;;;2.23;;
60032;SDS011;45905;50.570;10.428;2023-07-29T08:22:24;6.93;;;3.00;;
60032;SDS011;45905;50.570;10.428;2023-07-29T08:24:52;16.10;;;2.90;;
60032;SDS011;45905;50.570;10.428;2023-07-29T08:27:19;2.23;;;2.00;;
60032;SDS011;45905;50.570;10.428;2023-07-29T08:29:46;2.33;;;1.80;;
60032;SDS011;45905;50.570;10.428;2023-07-29T08:32:14;2.30;;;1.93;;
60032;SDS011;45905;50.570;10.428;2023-07-29T08:34:42;2.10;;;1.90;;
60032;SDS011;45905;50.570;10.428;2023-07-29T08:37:09;8.63;;;1.50;;
60032;SDS011;45905;50.570;10.428;2023-07-29T08:39:36;3.13;;;2.13;;
60032;SDS011;45905;50.570;10.428;2023-07-29T08:42:04;3.17;;;2.00;;
60032;SDS011;45905;50.570;10.428;2023-07-29T08:44:42;2.80;;;1.90;;
60032;SDS011;45905;50.570;10.428;2023-07-29T08:47:11;3.33;;;2.47;;
60032;SDS011;45905;50.570;10.428;2023-07-29T08:49:43;1.73;;;1.30;;
60032;SDS011;45905;50.570;10.428;2023-07-29T08:52:13;2.53;;;2.10;;
60032;SDS011;45905;50.570;10.428;2023-07-29T08:54:42;2.13;;;1.70;;
60032;SDS011;45905;50.570;10.428;2023-07-29T08:57:10;3.40;;;2.17;;
60032;SDS011;45905;50.570;10.428;2023-07-29T08:59:37;2.23;;;2.03;;
60032;SDS011;45905;50.570;10.428;2023-07-29T09:02:05;2.67;;;2.13;;
60032;SDS011;45905;50.570;10.428;2023-07-29T09:04:33;4.90;;;2.27;;
60032;SDS011;45905;50.570;10.428;2023-07-29T09:07:01;2.50;;;2.00;;
60032;SDS011;45905;50.570;10.428;2023-07-29T09:09:29;3.40;;;2.27;;
60032;SDS011;45905;50.570;10.428;2023-07-29T09:11:57;2.87;;;2.30;;
60032;SDS011;45905;50.570;10.428;2023-07-29T09:14:24;3.63;;;2.00;;
60032;SDS011;45905;50.570;10.428;2023-07-29T09:16:53;4.60;;;2.13;;
60032;SDS011;45905;50.570;10.428;2023-07-29T09:19:20;6.13;;;3.10;;
60032;SDS011;45905;50.570;10.428;2023-07-29T09:21:51;2.97;;;2.27;;
60032;SDS011;45905;50.570;10.428;2023-07-29T09:24:18;4.03;;;2.37;;
60032;SDS011;45905;50.570;10.428;2023-07-29T09:26:48;2.93;;;2.50;;
60032;SDS011;45905;50.570;10.428;2023-07-29T09:29:21;2.83;;;2.03;;
60032;SDS011;45905;50.570;10.428;2023-07-29T09:31:50;7.10;;;3.00;;
60032;SDS011;45905;50.570;10.428;2023-07-29T09:34:17;3.70;;;2.20;;
60032;SDS011;45905;50.570;10.428;2023-07-29T09:36:45;3.20;;;2.10;;
60032;SDS011;45905;50.570;10.428;2023-07-29T09:39:12;3.00;;;2.10;;
60032;SDS011;45905;50.570;10.428;2023-07-29T09:41:40;4.80;;;2.57;;
60032;SDS011;45905;50.570;10.428;2023-07-29T09:44:07;2.60;;;2.40;;
60032;SDS011;45905;50.570;10.428;2023-07-29T09:46:37;4.60;;;3.00;;
60032;SDS011;45905;50.570;10.428;2023-07-29T09:49:06;3.40;;;2.37;;
60032;SDS011;45905;50.570;10.428;2023-07-29T09:51:38;2.70;;;2.30;;
60032;SDS011;45905;50.570;10.428;2023-07-29T09:54:06;2.13;;;2.00;;
60032;SDS011;45905;50.570;10.428;2023-07-29T09:56:34;2.13;;;1.93;;
60032;SDS011;45905;50.570;10.428;2023-07-29T09:59:09;2.50;;;2.23;;
60032;SDS011;45905;50.570;10.428;2023-07-29T10:01:38;2.27;;;2.07;;
60032;SDS011;45905;50.570;10.428;2023-07-29T10:04:08;1.93;;;1.80;;
60032;SDS011;45905;50.570;10.428;2023-07-29T10:06:39;2.47;;;1.57;;
60032;SDS011;45905;50.570;10.428;2023-07-29T10:09:08;2.60;;;2.10;;
60032;SDS011;45905;50.570;10.428;2023-07-29T10:11:38;2.97;;;2.20;;
60032;SDS011;45905;50.570;10.428;2023-07-29T10:14:08;2.80;;;2.30;;
60032;SDS011;45905;50.570;10.428;2023-07-29T10:16:36;3.23;;;2.50;;
60032;SDS011;45905;50.570;10.428;2023-07-29T10:19:05;2.13;;;1.90;;
60032;SDS011;45905;50.570;10.428;2023-07-29T10:21:36;2.23;;;1.73;;
60032;SDS011;45905;50.570;10.428;2023-07-29T10:24:08;2.40;;;1.70;;
60032;SDS011;45905;50.570;10.428;2023-07-29T10:26:45;2.00;;;1.83;;
60032;SDS011;45905;50.570;10.428;2023-07-29T10:29:18;2.77;;;1.57;;
60032;SDS011;45905;50.570;10.428;2023-07-29T10:31:48;1.93;;;1.83;;
60032;SDS011;45905;50.570;10.428;2023-07-29T10:34:23;2.40;;;1.90;;
60032;SDS011;45905;50.570;10.428;2023-07-29T10:36:51;3.93;;;1.97;;
60032;SDS011;45905;50.570;10.428;2023-07-29T10:39:19;2.50;;;2.03;;
60032;SDS011;45905;50.570;10.428;2023-07-29T10:42:03;1.87;;;1.67;;
60032;SDS011;45905;50.570;10.428;2023-07-29T10:49:46;3.60;;;1.80;;
60032;SDS011;45905;50.570;10.428;2023-07-29T10:52:31;2.90;;;1.87;;
60032;SDS011;45905;50.570;10.428;2023-07-29T10:55:01;1.80;;;1.50;;
60032;SDS011;45905;50.570;10.428;2023-07-29T10:57:34;1.60;;;1.43;;
60032;SDS011;45905;50.570;10.428;2023-07-29T11:00:07;1.40;;;1.23;;
60032;SDS011;45905;50.570;10.428;2023-07-29T11:02:36;1.53;;;1.43;;
60032;SDS011;45905;50.570;10.428;2023-07-29T11:05:05;1.93;;;1.43;;
60032;SDS011;45905;50.570;10.428;2023-07-29T11:07:48;1.47;;;1.37;;
60032;SDS011;45905;50.570;10.428;2023-07-29T11:10:15;2.53;;;1.43;;
60032;SDS011;45905;50.570;10.428;2023-07-29T11:12:47;2.33;;;1.37;;
60032;SDS011;45905;50.570;10.428;2023-07-29T11:17:53;2.50;;;1.97;;
60032;SDS011;45905;50.570;10.428;2023-07-29T11:20:27;1.43;;;1.30;;
60032;SDS011;45905;50.570;10.428;2023-07-29T11:22:57;2.00;;;1.53;;
60032;SDS011;45905;50.570;10.428;2023-07-29T11:25:30;2.00;;;1.40;;
60032;SDS011;45905;50.570;10.428;2023-07-29T11:28:00;3.67;;;1.63;;
60032;SDS011;45905;50.570;10.428;2023-07-29T11:30:32;2.07;;;1.40;;
60032;SDS011;45905;50.570;10.428;2023-07-29T11:33:00;1.40;;;1.30;;
60032;SDS011;45905;50.570;10.428;2023-07-29T11:35:29;1.47;;;1.37;;
60032;SDS011;45905;50.570;10.428;2023-07-29T11:37:58;3.07;;;1.43;;
60032;SDS011;45905;50.570;10.428;2023-07-29T11:40:25;3.03;;;1.63;;
60032;SDS011;45905;50.570;10.428;2023-07-29T11:42:53;1.63;;;0.97;;
60032;SDS011;45905;50.570;10.428;2023-07-29T11:45:22;1.93;;;1.20;;
60032;SDS011;45905;50.570;10.428;2023-07-29T11:48:04;1.40;;;1.20;;
60032;SDS011;45905;50.570;10.428;2023-07-29T11:50:33;2.97;;;0.97;;
60032;SDS011;45905;50.570;10.428;2023-07-29T11:53:01;1.90;;;1.27;;
60032;SDS011;45905;50.570;10.428;2023-07-29T11:55:29;3.43;;;1.40;;
60032;SDS011;45905;50.570;10.428;2023-07-29T11:57:57;1.33;;;1.10;;
60032;SDS011;45905;50.570;10.428;2023-07-29T12:00:25;1.20;;;1.10;;
60032;SDS011;45905;50.570;10.428;2023-07-29T12:02:52;1.40;;;0.93;;
60032;SDS011;45905;50.570;10.428;2023-07-29T12:05:21;1.70;;;1.30;;
60032;SDS011;45905;50.570;10.428;2023-07-29T12:07:51;3.60;;;1.20;;
60032;SDS011;45905;50.570;10.428;2023-07-29T12:10:18;1.60;;;1.23;;
60032;SDS011;45905;50.570;10.428;2023-07-29T12:12:48;1.10;;;1.00;;
60032;SDS011;45905;50.570;10.428;2023-07-29T12:15:26;1.53;;;1.17;;
60032;SDS011;45905;50.570;10.428;2023-07-29T12:17:56;1.20;;;1.07;;
60032;SDS011;45905;50.570;10.428;2023-07-29T12:20:25;7.93;;;0.97;;
60032;SDS011;45905;50.570;10.428;2023-07-29T12:22:54;1.90;;;1.10;;
60032;SDS011;45905;50.570;10.428;2023-07-29T12:25:25;1.37;;;0.80;;
60032;SDS011;45905;50.570;10.428;2023-07-29T12:27:53;1.60;;;1.37;;
60032;SDS011;45905;50.570;10.428;2023-07-29T12:30:21;1.70;;;1.20;;
60032;SDS011;45905;50.570;10.428;2023-07-29T12:32:51;1.47;;;1.37;;
60032;SDS011;45905;50.570;10.428;2023-07-29T12:35:18;1.90;;;1.40;;
60032;SDS011;45905;50.570;10.428;2023-07-29T12:37:46;2.70;;;1.10;;
60032;SDS011;45905;50.570;10.428;2023-07-29T12:40:25;2.60;;;1.30;;
60032;SDS011;45905;50.570;10.428;2023-07-29T12:42:53;1.90;;;1.10;;
60032;SDS011;45905;50.570;10.428;2023-07-29T12:45:21;1.90;;;1.30;;
60032;SDS011;45905;50.570;10.428;2023-07-29T12:47:53;1.17;;;1.07;;
60032;SDS011;45905;50.570;10.428;2023-07-29T12:50:22;1.37;;;0.93;;
60032;SDS011;45905;50.570;10.428;2023-07-29T12:52:50;2.70;;;1.10;;
60032;SDS011;45905;50.570;10.428;2023-07-29T12:55:17;1.30;;;0.83;;
60032;SDS011;45905;50.570;10.428;2023-07-29T12:57:55;1.10;;;0.83;;
60032;SDS011;45905;50.570;10.428;2023-07-29T13:00:22;2.80;;;1.20;;
60032;SDS011;45905;50.570;10.428;2023-07-29T13:02:49;1.40;;;0.97;;
60032;SDS011;45905;50.570;10.428;2023-07-29T13:05:17;1.30;;;0.87;;
60032;SDS011;45905;50.570;10.428;2023-07-29T13:07:44;1.40;;;0.97;;
60032;SDS011;45905;50.570;10.428;2023-07-29T13:10:12;2.20;;;1.20;;
60032;SDS011;45905;50.570;10.428;2023-07-29T13:12:40;1.80;;;1.10;;
60032;SDS011;45905;50.570;10.428;2023-07-29T13:15:07;2.53;;;1.00;;
60032;SDS011;45905;50.570;10.428;2023-07-29T13:17:35;7.10;;;1.20;;
60032;SDS011;45905;50.570;10.428;2023-07-29T13:20:04;1.47;;;0.90;;
60032;SDS011;45905;50.570;10.428;2023-07-29T13:22:32;1.73;;;1.00;;
60032;SDS011;45905;50.570;10.428;2023-07-29T13:25:00;1.30;;;0.90;;
60032;SDS011;45905;50.570;10.428;2023-07-29T13:27:28;1.30;;;0.90;;
60032;SDS011;45905;50.570;10.428;2023-07-29T13:29:56;2.33;;;1.00;;
60032;SDS011;45905;50.570;10.428;2023-07-29T13:32:23;1.47;;;1.13;;
60032;SDS011;45905;50.570;10.428;2023-07-29T13:34:50;2.07;;;0.90;;
60032;SDS011;45905;50.570;10.428;2023-07-29T13:37:18;1.50;;;1.00;;
60032;SDS011;45905;50.570;10.428;2023-07-29T13:39:45;4.80;;;1.10;;
60032;SDS011;45905;50.570;10.428;2023-07-29T13:42:12;1.07;;;0.60;;
60032;SDS011;45905;50.570;10.428;2023-07-29T13:44:39;2.90;;;0.93;;
60032;SDS011;45905;50.570;10.428;2023-07-29T13:47:07;1.10;;;0.77;;
60032;SDS011;45905;50.570;10.428;2023-07-29T13:49:34;1.93;;;0.70;;
60032;SDS011;45905;50.570;10.428;2023-07-29T13:52:01;2.67;;;0.80;;
60032;SDS011;45905;50.570;10.428;2023-07-29T13:54:29;0.90;;;0.60;;
60032;SDS011;45905;50.570;10.428;2023-07-29T13:56:56;5.43;;;0.77;;
60032;SDS011;45905;50.570;10.428;2023-07-29T13:59:24;1.73;;;0.70;;
60032;SDS011;45905;50.570;10.428;2023-07-29T14:01:51;2.10;;;0.80;;
60032;SDS011;45905;50.570;10.428;2023-07-29T14:04:18;2.83;;;1.03;;
60032;SDS011;45905;50.570;10.428;2023-07-29T14:06:45;1.40;;;0.70;;
60032;SDS011;45905;50.570;10.428;2023-07-29T14:09:19;1.10;;;0.77;;
60032;SDS011;45905;50.570;10.428;2023-07-29T14:11:46;7.03;;;0.97;;
60032;SDS011;45905;50.570;10.428;2023-07-29T14:14:14;0.90;;;0.50;;
60032;SDS011;45905;50.570;10.428;2023-07-29T14:16:41;1.10;;;0.77;;
60032;SDS011;45905;50.570;10.428;2023-07-29T14:19:09;1.53;;;0.97;;
60032;SDS011;45905;50.570;10.428;2023-07-29T14:21:36;3.30;;;0.77;;
60032;SDS011;45905;50.570;10.428;2023-07-29T14:24:03;1.37;;;0.60;;
60032;SDS011;45905;50.570;10.428;2023-07-29T14:26:31;1.10;;;0.60;;
60032;SDS011;45905;50.570;10.428;2023-07-29T14:28:59;2.87;;;0.73;;
60032;SDS011;45905;50.570;10.428;2023-07-29T14:31:26;2.37;;;0.63;;
60032;SDS011;45905;50.570;10.428;2023-07-29T14:33:53;1.00;;;0.70;;
60032;SDS011;45905;50.570;10.428;2023-07-29T14:36:21;1.87;;;0.80;;
60032;SDS011;45905;50.570;10.428;2023-07-29T14:38:48;1.27;;;0.70;;
60032;SDS011;45905;50.570;10.428;2023-07-29T14:41:15;4.10;;;1.40;;
60032;SDS011;45905;50.570;10.428;2023-07-29T14:43:42;1.57;;;0.50;;
60032;SDS011;45905;50.570;10.428;2023-07-29T14:46:09;2.60;;;0.70;;
60032;SDS011;45905;50.570;10.428;2023-07-29T14:48:37;1.23;;;0.60;;
60032;SDS011;45905;50.570;10.428;2023-07-29T14:51:04;1.20;;;0.83;;
60032;SDS011;45905;50.570;10.428;2023-07-29T14:53:32;0.90;;;0.70;;
60032;SDS011;45905;50.570;10.428;2023-07-29T14:55:59;1.00;;;0.60;;
60032;SDS011;45905;50.570;10.428;2023-07-29T14:58:26;0.87;;;0.53;;
60032;SDS011;45905;50.570;10.428;2023-07-29T15:00:54;0.80;;;0.50;;
60032;SDS011;45905;50.570;10.428;2023-07-29T15:03:22;1.37;;;0.60;;
60032;SDS011;45905;50.570;10.428;2023-07-29T15:05:51;1.83;;;0.60;;
60032;SDS011;45905;50.570;10.428;2023-07-29T15:08:18;1.20;;;0.70;;
60032;SDS011;45905;50.570;10.428;2023-07-29T15:10:49;1.53;;;0.80;;
60032;SDS011;45905;50.570;10.428;2023-07-29T15:13:16;3.03;;;0.60;;